This is the latest recevied weather packets stored in our database for station/object G8LMY. If no packets are shown the sender has not sent any weather packets the latest 10 day(s).
| Time | Temp. | Humidity | Pressure | Rain* | Wind** | Luminosity | Snow |
|---|---|---|---|---|---|---|---|
| 1777757034 | 12.78° C | 92% | 1010.2 hPa | 0 mm | - | - | - |
| 1777756134 | 12.78° C | 92% | 1010.2 hPa | 0 mm | - | - | - |
| 1777755235 | 12.78° C | 92% | 1010.4 hPa | 0 mm | - | - | - |
| 1777754334 | 12.78° C | 92% | 1010.4 hPa | 0 mm | - | - | - |
| 1777753434 | 13.33° C | 92% | 1010.5 hPa | 0 mm | - | - | - |
| 1777749834 | 13.33° C | 90% | 1010.5 hPa | 0 mm | - | - | - |
| 1777748034 | 13.33° C | 91% | 1010.4 hPa | 0 mm | - | - | - |
| 1777746234 | 13.33° C | 90% | 1010.6 hPa | 0 mm | - | - | - |
| 1777744435 | 13.33° C | 90% | 1010.8 hPa | 0 mm | - | - | - |
| 1777742636 | 13.33° C | 90% | 1010.9 hPa | 0.25 mm | - | - | - |
| 1777739935 | 13.89° C | 89% | 1011.6 hPa | 2.03 mm | - | - | - |
| 1777739035 | 13.89° C | 89% | 1011.8 hPa | 2.29 mm | - | - | - |
| 1777736335 | 19.44° C | 67% | 1012.2 hPa | 0.25 mm | - | - | - |
| 1777734535 | 20° C | 58% | 1012.1 hPa | 0 mm | - | - | - |
| 1777733635 | 20° C | 56% | 1012.4 hPa | 0 mm | - | - | - |
| 1777732735 | 20.56° C | 53% | 1012.5 hPa | 0 mm | - | - | - |
| 1777731835 | 20.56° C | 52% | 1012.6 hPa | 0 mm | - | - | - |
| 1777730935 | 21.11° C | 51% | 1012.8 hPa | 0 mm | - | - | - |
| 1777730035 | 21.67° C | 49% | 1013.2 hPa | 0 mm | - | - | - |
| 1777727335 | 21.67° C | 47% | 1013.9 hPa | 0 mm | - | - | - |
| 1777726435 | 21.67° C | 49% | 1014.1 hPa | 0 mm | - | - | - |
| 1777722835 | 20° C | 54% | 1015 hPa | 0 mm | - | - | - |
| 1777721935 | 18.89° C | 56% | 1015.4 hPa | 0 mm | - | - | - |
| 1777719235 | 17.22° C | 64% | 1015.9 hPa | 0 mm | - | - | - |
| 1777718335 | 16.11° C | 66% | 1016.3 hPa | 0 mm | - | - | - |
* Rain latest hour (hover to see other rain measurements)
** Current wind speed in m/s (hover to see current wind gust speed)